EBOS/OST METAR and TAF weather

Enter ICAO airport designator
Station Type Date Time Source
EBOS METAR 2023/02/04 03:20 UTC NOAA

EBOS 040320Z 31008KT 9999 BKN020 08/06 Q1035 NOSIG


Station Type Date Time Source
EBOS Decoded METAR 2023/02/04 03:20 UTC NOAA

Oostende Airport , Belgium (EBOS) 51-12N 002-52E 5M
Feb 03, 2023 - 10:20 PM EST / 2023.02.04 0320 UTC
Wind: from the NW (310 degrees) at 9 MPH (8 KT):0
Visibility: greater than 7 mile(s):0
Sky conditions: mostly cloudy
Temperature: 46 F (8 C)
Dew Point: 42 F (6 C)
Relative Humidity: 87%
Pressure (altimeter): 30.56 in. Hg (1035 hPa)
ob: EBOS 040320Z 31008KT 9999 BKN020 08/06 Q1035 NOSIG
cycle: 3

Station Type Date Time Source
EBOS TAF 2023/02/03 18:27 UTC NOAA

TAF EBOS 031700Z 0318/0424 28012KT 9999 SCT020 BKN030

Example: see airport list